Time;durP1;ratioP1;P1;durP2;ratioP2;P2;SDS_P1;SDS_P2;PMS_P1;PMS_P2;Temp;Humidity;BMP_temperature;BMP_pressure;BME280_temperature;BME280_humidity;BME280_pressure;Samples;Min_cycle;Max_cycle;Signal;HPM_P1;HPM_P2
2022/01/05 00:02:08;;;;;;;7.07;0.50;;;3.40;99.90;;;;;;4995304;28;20105;-86
2022/01/05 00:04:35;;;;;;;14.45;1.70;;;3.50;99.90;;;;;;4992654;28;20037;-86
2022/01/05 00:07:02;;;;;;;10.20;0.80;;;3.50;99.90;;;;;;4996097;28;20080;-86
2022/01/05 00:09:28;;;;;;;8.60;0.70;;;3.50;99.90;;;;;;4992002;28;20577;-86
2022/01/05 00:11:54;;;;;;;6.75;0.52;;;3.50;99.90;;;;;;4994086;28;20038;-86
2022/01/05 00:14:19;;;;;;;8.02;0.57;;;3.50;99.90;;;;;;4995531;28;20395;-86
2022/01/05 00:16:45;;;;;;;7.70;0.85;;;3.50;99.90;;;;;;4988471;28;20050;-86
2022/01/05 00:19:10;;;;;;;7.15;0.70;;;3.40;99.90;;;;;;4992936;28;20550;-86
2022/01/05 00:21:36;;;;;;;8.73;0.50;;;3.40;99.90;;;;;;4995005;28;20026;-86
2022/01/05 00:24:02;;;;;;;9.38;1.02;;;3.40;99.90;;;;;;4994771;28;20418;-86
2022/01/05 00:26:28;;;;;;;8.30;0.50;;;3.40;99.90;;;;;;4993619;28;20088;-86
2022/01/05 00:28:54;;;;;;;10.35;0.60;;;3.40;99.90;;;;;;4994145;28;20445;-86
2022/01/05 00:31:20;;;;;;;7.35;0.68;;;3.40;99.90;;;;;;4992763;28;20493;-86
2022/01/05 00:33:46;;;;;;;9.15;0.75;;;3.50;99.90;;;;;;4987048;28;20022;-86
2022/01/05 00:36:11;;;;;;;10.93;0.73;;;3.50;99.90;;;;;;4989803;28;20411;-86
2022/01/05 00:38:37;;;;;;;7.63;0.38;;;3.50;99.90;;;;;;4993186;28;20037;-85
2022/01/05 00:41:04;;;;;;;8.88;0.50;;;3.50;99.90;;;;;;4983817;28;20054;-86
2022/01/05 00:43:30;;;;;;;5.82;0.50;;;3.50;99.90;;;;;;4986305;28;20034;-86
2022/01/05 00:45:56;;;;;;;8.13;0.40;;;3.50;99.90;;;;;;4991509;28;20027;-86
2022/01/05 00:48:21;;;;;;;7.82;0.60;;;3.50;99.90;;;;;;4995127;28;20438;-87
2022/01/05 00:50:47;;;;;;;11.93;1.15;;;3.60;99.90;;;;;;4993081;28;20557;-86
2022/01/05 00:53:12;;;;;;;6.50;0.77;;;3.60;99.90;;;;;;4992851;28;20030;-86
2022/01/05 00:55:38;;;;;;;11.45;1.05;;;3.60;99.90;;;;;;4991237;28;20034;-86
2022/01/05 00:58:03;;;;;;;10.30;0.50;;;3.60;99.90;;;;;;4995301;28;20069;-86
2022/01/05 01:00:29;;;;;;;9.30;1.75;;;3.60;99.90;;;;;;4984307;28;20030;-86
2022/01/05 01:02:54;;;;;;;3.88;0.40;;;3.60;99.90;;;;;;4994572;28;20034;-86
2022/01/05 01:05:20;;;;;;;10.65;0.90;;;3.50;99.90;;;;;;4993275;28;20026;-86
2022/01/05 01:07:46;;;;;;;7.18;1.65;;;3.40;99.90;;;;;;4994075;28;20045;-85
2022/01/05 01:10:13;;;;;;;8.40;0.50;;;3.40;99.90;;;;;;4988856;28;20046;-87
2022/01/05 01:12:38;;;;;;;10.02;0.50;;;3.40;99.90;;;;;;4986347;28;20037;-86
2022/01/05 01:15:06;;;;;;;5.47;0.50;;;3.30;99.90;;;;;;4995917;28;20045;-86
2022/01/05 01:17:32;;;;;;;8.90;0.57;;;3.30;99.90;;;;;;4995960;28;20105;-86
2022/01/05 01:19:57;;;;;;;12.52;1.45;;;3.20;99.90;;;;;;4995342;28;20026;-86
2022/01/05 01:22:24;;;;;;;9.57;0.93;;;3.20;99.90;;;;;;4995433;28;20037;-86
2022/01/05 01:24:49;;;;;;;8.88;0.60;;;3.10;99.90;;;;;;4993896;28;20076;-87
2022/01/05 01:27:15;;;;;;;7.47;0.80;;;3.10;99.90;;;;;;4996395;28;20022;-86
2022/01/05 01:29:40;;;;;;;5.65;0.60;;;3.00;99.90;;;;;;4995116;28;20027;-86
2022/01/05 01:32:06;;;;;;;9.52;1.08;;;3.00;99.90;;;;;;4996925;28;20033;-86
2022/01/05 01:34:32;;;;;;;10.27;0.90;;;2.90;99.90;;;;;;5012450;28;20033;-86
2022/01/05 01:36:58;;;;;;;8.82;0.65;;;2.80;99.90;;;;;;4996767;28;20393;-87
2022/01/05 01:39:23;;;;;;;7.18;0.80;;;2.70;99.90;;;;;;4985106;28;20026;-86
2022/01/05 01:41:49;;;;;;;7.32;1.30;;;2.70;99.90;;;;;;4994893;28;20025;-86
2022/01/05 01:44:16;;;;;;;11.50;1.23;;;2.60;99.90;;;;;;4995587;28;20022;-86
2022/01/05 01:46:42;;;;;;;12.45;0.88;;;2.60;99.90;;;;;;4996290;28;20025;-86
2022/01/05 01:49:08;;;;;;;7.13;0.73;;;2.60;99.90;;;;;;5010097;28;20030;-86
2022/01/05 01:51:33;;;;;;;11.02;0.95;;;2.50;99.90;;;;;;4979337;28;20034;-86
2022/01/05 01:54:00;;;;;;;8.90;0.75;;;2.50;99.90;;;;;;4987968;28;20038;-86
2022/01/05 01:56:26;;;;;;;9.43;0.98;;;2.50;99.90;;;;;;5010842;28;20026;-86
2022/01/05 01:58:52;;;;;;;11.48;0.95;;;2.50;99.90;;;;;;4996036;28;20116;-86
2022/01/05 02:01:18;;;;;;;11.82;0.85;;;2.50;99.90;;;;;;4989147;28;20427;-86
2022/01/05 02:03:44;;;;;;;8.18;0.65;;;2.50;99.90;;;;;;4995769;28;20490;-86
2022/01/05 02:06:10;;;;;;;7.90;1.02;;;2.50;99.90;;;;;;4996693;28;20482;-87
2022/01/05 02:08:35;;;;;;;11.70;1.35;;;2.50;99.90;;;;;;4996641;28;20030;-86
2022/01/05 02:11:02;;;;;;;8.57;0.77;;;2.50;99.90;;;;;;4993276;28;20021;-86
2022/01/05 02:13:28;;;;;;;7.68;0.73;;;2.50;99.90;;;;;;4994276;28;20478;-86
2022/01/05 02:15:54;;;;;;;10.00;1.38;;;2.50;99.90;;;;;;4992424;28;20099;-87
2022/01/05 02:21:02;;;;;;;9.57;1.75;;;2.60;99.90;;;;;;5010174;28;20030;-86
2022/01/05 02:23:27;;;;;;;11.68;1.02;;;2.60;99.90;;;;;;5011551;28;20072;-86
2022/01/05 02:25:54;;;;;;;10.07;1.20;;;2.50;99.90;;;;;;5014313;28;20030;-86
2022/01/05 02:28:20;;;;;;;9.55;0.98;;;2.50;99.90;;;;;;5012700;28;20080;-86
2022/01/05 02:30:45;;;;;;;9.63;0.88;;;2.50;99.90;;;;;;4992390;28;20029;-86
2022/01/05 02:33:11;;;;;;;8.48;1.02;;;2.50;99.90;;;;;;4995575;28;20029;-86
2022/01/05 02:35:37;;;;;;;7.65;0.90;;;2.50;99.90;;;;;;4994962;28;20433;-86
2022/01/05 02:38:02;;;;;;;8.25;1.00;;;2.40;99.90;;;;;;4994559;28;20030;-86
2022/01/05 02:40:28;;;;;;;12.02;0.95;;;2.40;99.90;;;;;;4989875;28;20034;-86
2022/01/05 02:42:56;;;;;;;11.43;1.73;;;2.40;99.90;;;;;;4994594;28;20609;-86
2022/01/05 02:45:22;;;;;;;10.90;1.10;;;2.30;99.90;;;;;;4991219;28;20066;-86
2022/01/05 02:47:48;;;;;;;7.78;1.35;;;2.30;99.90;;;;;;4986705;28;20022;-85
2022/01/05 02:50:14;;;;;;;10.82;0.85;;;2.30;99.90;;;;;;4991670;28;20040;-86
2022/01/05 02:52:40;;;;;;;13.88;1.08;;;2.30;99.90;;;;;;4989908;28;20018;-86
2022/01/05 02:55:07;;;;;;;6.07;0.77;;;2.30;99.90;;;;;;4994294;28;20073;-86
2022/01/05 02:57:33;;;;;;;7.28;0.70;;;2.30;99.90;;;;;;4996040;28;20034;-86
2022/01/05 02:59:59;;;;;;;10.25;0.82;;;2.30;99.90;;;;;;4989270;28;20534;-86
2022/01/05 03:02:24;;;;;;;7.97;1.10;;;2.30;99.90;;;;;;4988289;28;20027;-86
2022/01/05 03:04:50;;;;;;;10.32;1.20;;;2.40;99.90;;;;;;4991375;28;20021;-86
2022/01/05 03:07:16;;;;;;;5.03;0.80;;;2.40;99.90;;;;;;4991929;28;20030;-86
2022/01/05 03:09:43;;;;;;;7.28;0.65;;;2.40;99.90;;;;;;4981457;28;20026;-87
2022/01/05 03:12:10;;;;;;;8.55;0.77;;;2.40;99.90;;;;;;4992640;28;20548;-86
2022/01/05 03:14:36;;;;;;;7.97;0.63;;;2.40;99.90;;;;;;4995906;28;20072;-86
2022/01/05 03:17:01;;;;;;;13.05;1.23;;;2.50;99.90;;;;;;4995176;28;20077;-86
2022/01/05 03:19:27;;;;;;;7.32;0.80;;;2.50;99.90;;;;;;4991467;28;20065;-86
2022/01/05 03:21:53;;;;;;;8.68;0.70;;;2.50;99.90;;;;;;4991931;28;20037;-86
2022/01/05 03:24:18;;;;;;;6.75;0.50;;;2.60;99.90;;;;;;4991186;28;20065;-86
2022/01/05 03:26:44;;;;;;;5.72;0.52;;;2.60;99.90;;;;;;4994802;28;20024;-86
2022/01/05 03:29:10;;;;;;;5.93;0.50;;;2.60;99.90;;;;;;4989431;28;20487;-86
2022/01/05 03:31:35;;;;;;;8.80;0.80;;;2.60;99.90;;;;;;4993051;28;20026;-86
2022/01/05 03:34:01;;;;;;;11.35;1.05;;;2.60;99.90;;;;;;4995252;28;20041;-86
2022/01/05 03:36:26;;;;;;;10.00;0.80;;;2.60;99.90;;;;;;4996136;28;20032;-86
2022/01/05 03:38:52;;;;;;;10.38;1.67;;;2.60;99.90;;;;;;4997583;28;20054;-86
2022/01/05 03:41:17;;;;;;;9.10;0.88;;;2.70;99.90;;;;;;5010035;28;20501;-86
2022/01/05 03:43:43;;;;;;;10.48;1.10;;;2.70;99.90;;;;;;4998641;28;20038;-86
2022/01/05 03:46:09;;;;;;;13.27;1.55;;;2.70;99.90;;;;;;5015774;28;20030;-86
2022/01/05 03:48:34;;;;;;;11.10;0.80;;;2.70;99.90;;;;;;4995075;28;20090;-87
2022/01/05 03:51:00;;;;;;;9.27;0.65;;;2.70;99.90;;;;;;4995147;28;20054;-87
2022/01/05 03:53:25;;;;;;;8.27;0.70;;;2.70;99.90;;;;;;4997947;28;20057;-86
2022/01/05 03:55:51;;;;;;;7.65;0.82;;;2.60;99.90;;;;;;5015108;28;20030;-86
2022/01/05 03:58:16;;;;;;;9.38;0.68;;;2.70;99.90;;;;;;4999158;28;20037;-87
2022/01/05 04:00:46;;;;;;;23.15;1.02;;;2.60;99.90;;;;;;4987254;28;20024;-86
2022/01/05 04:03:12;;;;;;;11.88;0.73;;;2.60;99.90;;;;;;4997863;28;20037;-86
2022/01/05 04:05:37;;;;;;;9.90;0.80;;;2.50;99.90;;;;;;4997418;28;20454;-86
2022/01/05 04:08:04;;;;;;;10.88;1.52;;;2.50;99.90;;;;;;5014901;28;20037;-86
2022/01/05 04:10:29;;;;;;;12.40;0.95;;;2.50;99.90;;;;;;4998376;28;20053;-86
2022/01/05 04:12:55;;;;;;;11.57;1.23;;;2.40;99.90;;;;;;4990593;28;20108;-87
2022/01/05 04:15:21;;;;;;;9.00;0.80;;;2.40;99.90;;;;;;5010621;28;20447;-86
2022/01/05 04:17:46;;;;;;;10.25;0.60;;;2.40;99.90;;;;;;4997045;28;20034;-86
2022/01/05 04:20:15;;;;;;;12.63;1.55;;;2.40;99.90;;;;;;4996486;28;20036;-87
2022/01/05 04:22:41;;;;;;;12.43;1.17;;;2.40;99.90;;;;;;4992294;28;20030;-87
2022/01/05 04:25:07;;;;;;;11.45;1.02;;;2.40;99.90;;;;;;4997571;28;20036;-86
2022/01/05 04:27:33;;;;;;;7.68;0.70;;;2.40;99.90;;;;;;4997191;28;20457;-86
2022/01/05 04:29:59;;;;;;;8.40;0.90;;;2.50;99.90;;;;;;4995397;28;20114;-86
2022/01/05 04:32:24;;;;;;;11.90;1.00;;;2.40;99.90;;;;;;4994147;28;20073;-86
2022/01/05 04:34:50;;;;;;;10.25;0.95;;;2.40;99.90;;;;;;5012489;28;20027;-86
2022/01/05 04:37:15;;;;;;;9.20;1.00;;;2.40;99.90;;;;;;4995981;28;20045;-86
2022/01/05 04:39:41;;;;;;;11.57;1.23;;;2.40;99.90;;;;;;4997211;28;20028;-86
2022/01/05 04:42:07;;;;;;;9.63;1.42;;;2.40;99.90;;;;;;4995094;28;20030;-87
2022/01/05 04:44:33;;;;;;;8.43;0.90;;;2.40;99.90;;;;;;4997728;28;20026;-86
2022/01/05 04:46:58;;;;;;;10.23;0.80;;;2.30;99.90;;;;;;4998048;28;20049;-86
2022/01/05 04:49:24;;;;;;;13.32;0.75;;;2.30;99.90;;;;;;4994378;28;20419;-87
2022/01/05 04:51:50;;;;;;;10.35;0.80;;;2.20;99.90;;;;;;4994818;28;20021;-86
2022/01/05 04:54:15;;;;;;;13.23;0.90;;;2.20;99.90;;;;;;4994752;28;20060;-86
2022/01/05 04:56:41;;;;;;;11.05;0.80;;;2.20;99.90;;;;;;4990431;28;20022;-86
2022/01/05 04:59:06;;;;;;;9.43;0.77;;;2.20;99.90;;;;;;4997304;28;20478;-86
2022/01/05 05:01:32;;;;;;;12.98;1.55;;;2.20;99.90;;;;;;4996610;28;20074;-86
2022/01/05 05:03:57;;;;;;;12.88;0.90;;;2.20;99.90;;;;;;4996165;28;20064;-86
2022/01/05 05:06:23;;;;;;;8.43;0.95;;;2.20;99.90;;;;;;4995337;28;20386;-86
2022/01/05 05:08:49;;;;;;;17.40;1.70;;;2.30;99.90;;;;;;4990844;28;20088;-86
2022/01/05 05:11:15;;;;;;;11.02;1.13;;;2.30;99.90;;;;;;4993069;28;20022;-87
2022/01/05 05:13:41;;;;;;;11.82;1.05;;;2.30;99.90;;;;;;4984373;28;20474;-87
2022/01/05 05:16:06;;;;;;;15.32;1.13;;;2.30;99.90;;;;;;5013974;28;20121;-87
2022/01/05 05:18:32;;;;;;;10.70;0.90;;;2.30;99.90;;;;;;5010145;28;20044;-86
2022/01/05 05:20:57;;;;;;;9.90;1.50;;;2.30;99.90;;;;;;4981834;28;20424;-86
2022/01/05 05:23:23;;;;;;;16.13;1.08;;;2.30;99.90;;;;;;4990770;28;20486;-86
2022/01/05 05:25:49;;;;;;;13.52;1.67;;;2.30;99.90;;;;;;4993499;28;20549;-87
2022/01/05 05:28:14;;;;;;;11.75;1.10;;;2.30;99.90;;;;;;4997383;28;20053;-87
2022/01/05 05:30:40;;;;;;;15.63;2.80;;;2.30;99.90;;;;;;4994801;28;20036;-87
2022/01/05 05:33:05;;;;;;;18.02;1.42;;;2.40;99.90;;;;;;4995359;28;20029;-86
2022/01/05 05:35:32;;;;;;;8.85;1.08;;;2.30;99.90;;;;;;4995539;28;20052;-87
2022/01/05 05:37:58;;;;;;;9.13;0.80;;;2.40;99.90;;;;;;4992253;28;20132;-87
2022/01/05 05:40:24;;;;;;;9.43;1.30;;;2.40;99.90;;;;;;4995218;28;20060;-86
2022/01/05 05:42:50;;;;;;;16.83;1.40;;;2.40;99.90;;;;;;4996638;28;20092;-86
2022/01/05 05:45:16;;;;;;;9.27;1.30;;;2.40;99.90;;;;;;4996143;28;20083;-86
2022/01/05 05:47:42;;;;;;;18.00;1.00;;;2.40;99.90;;;;;;4996232;28;20093;-86
2022/01/05 05:50:08;;;;;;;13.95;1.25;;;2.40;99.90;;;;;;4994690;28;20029;-85
2022/01/05 05:52:34;;;;;;;10.43;1.23;;;2.60;99.90;;;;;;4996248;28;20177;-86
2022/01/05 05:55:00;;;;;;;14.15;1.60;;;2.60;99.90;;;;;;4995905;28;20068;-87
2022/01/05 05:57:26;;;;;;;9.80;1.50;;;2.80;99.90;;;;;;4996634;28;20034;-87
2022/01/05 05:59:52;;;;;;;22.38;1.25;;;2.90;99.90;;;;;;4981287;28;20107;-87
2022/01/05 06:02:17;;;;;;;11.60;1.20;;;3.00;99.90;;;;;;4995394;28;20057;-87
2022/01/05 06:04:43;;;;;;;11.68;1.02;;;3.10;99.90;;;;;;4995881;28;20030;-87
2022/01/05 06:07:08;;;;;;;14.20;0.95;;;3.10;99.90;;;;;;4996542;28;20492;-86
2022/01/05 06:09:34;;;;;;;14.25;1.35;;;3.10;99.90;;;;;;4996238;28;20033;-86
2022/01/05 06:11:59;;;;;;;13.15;1.60;;;3.20;99.90;;;;;;4994022;28;20064;-87
2022/01/05 06:14:25;;;;;;;17.52;1.83;;;3.20;99.90;;;;;;4995087;28;20114;-87
2022/01/05 06:16:50;;;;;;;14.25;1.20;;;3.20;99.90;;;;;;4987900;28;20521;-87
2022/01/05 06:19:16;;;;;;;12.35;1.40;;;3.20;99.90;;;;;;4993911;28;20026;-86
2022/01/05 06:21:44;;;;;;;17.33;2.28;;;3.30;99.90;;;;;;4995683;28;20038;-86
2022/01/05 06:24:10;;;;;;;15.77;2.13;;;3.30;99.90;;;;;;4987632;28;20124;-87
2022/01/05 06:26:36;;;;;;;9.73;0.82;;;3.40;99.90;;;;;;5001692;28;20030;-87
2022/01/05 06:29:01;;;;;;;14.00;0.95;;;3.50;99.90;;;;;;4986704;28;20438;-87
2022/01/05 06:31:27;;;;;;;11.60;1.08;;;3.60;99.90;;;;;;4989547;28;20041;-87
2022/01/05 06:33:52;;;;;;;16.08;1.17;;;3.60;99.90;;;;;;5011599;28;20116;-87
2022/01/05 06:36:18;;;;;;;20.55;1.58;;;3.70;99.90;;;;;;4994085;28;20033;-88
2022/01/05 06:38:44;;;;;;;9.88;0.93;;;3.70;99.90;;;;;;5011598;28;20113;-87
2022/01/05 06:41:09;;;;;;;14.45;1.45;;;3.80;99.90;;;;;;4995660;28;20030;-87
2022/01/05 06:43:34;;;;;;;13.52;1.67;;;3.90;99.90;;;;;;4995835;28;20107;-88
2022/01/05 06:46:00;;;;;;;18.55;1.67;;;3.90;99.90;;;;;;4995242;28;20057;-87
2022/01/05 06:48:26;;;;;;;12.63;1.05;;;4.00;99.90;;;;;;4989585;28;20027;-87
2022/01/05 06:50:51;;;;;;;17.30;1.05;;;4.00;99.90;;;;;;4992695;28;20033;-87
2022/01/05 06:53:17;;;;;;;14.48;1.42;;;4.00;99.90;;;;;;4995430;28;20118;-87
2022/01/05 06:55:42;;;;;;;13.00;1.23;;;4.00;99.90;;;;;;4987114;28;20367;-87
2022/01/05 06:58:08;;;;;;;17.33;1.38;;;4.10;99.90;;;;;;4996391;28;20045;-87
2022/01/05 07:00:34;;;;;;;12.73;1.48;;;4.10;99.90;;;;;;4993680;28;20045;-87
2022/01/05 07:03:00;;;;;;;9.68;1.33;;;4.10;99.90;;;;;;4990190;28;20029;-85
2022/01/05 07:05:25;;;;;;;16.15;1.60;;;4.10;99.90;;;;;;5012245;28;20072;-87
2022/01/05 07:07:51;;;;;;;18.75;1.92;;;4.10;99.90;;;;;;4996594;28;20121;-87
2022/01/05 07:10:17;;;;;;;12.43;0.77;;;4.20;99.90;;;;;;4995342;28;20386;-86
2022/01/05 07:12:43;;;;;;;14.55;0.80;;;4.20;99.90;;;;;;4997447;28;20084;-87
2022/01/05 07:15:09;;;;;;;10.52;0.82;;;4.20;99.90;;;;;;4996112;28;20058;-86
2022/01/05 07:17:36;;;;;;;6.15;1.10;;;4.20;99.90;;;;;;4996864;28;20061;-86
2022/01/05 07:20:03;;;;;;;14.90;1.45;;;4.20;99.90;;;;;;4994181;28;20036;-87
2022/01/05 07:22:29;;;;;;;12.50;1.65;;;4.30;99.90;;;;;;4997779;28;20030;-86
2022/01/05 07:24:56;;;;;;;19.20;1.00;;;4.30;99.90;;;;;;4997158;28;20021;-87
2022/01/05 07:27:22;;;;;;;14.55;0.68;;;4.30;99.90;;;;;;5010836;28;20508;-86
2022/01/05 07:29:47;;;;;;;6.78;1.20;;;4.30;99.90;;;;;;4997701;28;20033;-86
2022/01/05 07:32:13;;;;;;;14.85;0.95;;;4.30;99.90;;;;;;4994531;28;20037;-86
2022/01/05 07:34:38;;;;;;;17.50;1.23;;;4.40;99.90;;;;;;4993617;28;20073;-86
2022/01/05 07:37:04;;;;;;;8.32;0.98;;;4.40;99.90;;;;;;4995784;28;20045;-87
2022/01/05 07:39:30;;;;;;;16.85;1.25;;;4.40;99.90;;;;;;4996475;28;20024;-86
2022/01/05 07:41:55;;;;;;;10.27;0.60;;;4.40;99.90;;;;;;4997726;28;20041;-87
2022/01/05 07:44:21;;;;;;;9.90;1.00;;;4.40;99.90;;;;;;4997375;28;21891;-87
2022/01/05 07:46:46;;;;;;;18.50;2.00;;;4.40;99.90;;;;;;4995337;28;20022;-89
2022/01/05 07:49:12;;;;;;;14.85;2.47;;;4.40;99.90;;;;;;4986943;28;20022;-88
2022/01/05 07:51:38;;;;;;;10.43;0.95;;;4.50;99.90;;;;;;4997347;28;20022;-86
2022/01/05 07:54:03;;;;;;;9.90;1.20;;;4.50;99.90;;;;;;4998041;28;20112;-86
2022/01/05 07:56:29;;;;;;;16.05;1.25;;;4.50;99.90;;;;;;4998970;28;20112;-84
2022/01/05 07:58:55;;;;;;;15.93;1.30;;;4.50;99.90;;;;;;4996722;28;20459;-86
2022/01/05 08:01:21;;;;;;;13.15;1.75;;;4.50;99.90;;;;;;4995099;28;20022;-86
2022/01/05 08:03:47;;;;;;;14.68;1.02;;;4.60;99.90;;;;;;4994769;28;20406;-86
2022/01/05 08:06:13;;;;;;;12.15;0.82;;;4.60;99.90;;;;;;4998603;28;20018;-86
2022/01/05 08:08:39;;;;;;;13.60;1.23;;;4.60;99.90;;;;;;4996803;28;20084;-87
2022/01/05 08:11:04;;;;;;;12.88;1.45;;;4.60;99.90;;;;;;4997163;28;20205;-87
2022/01/05 08:13:30;;;;;;;12.73;0.93;;;4.70;99.90;;;;;;4995151;28;20026;-87
2022/01/05 08:15:56;;;;;;;10.73;2.17;;;4.70;99.90;;;;;;4995079;28;20053;-86
2022/01/05 08:18:22;;;;;;;17.25;1.75;;;4.70;99.90;;;;;;4985071;28;20454;-86
2022/01/05 08:20:47;;;;;;;10.07;0.70;;;4.80;99.90;;;;;;4988724;28;20113;-87
2022/01/05 08:23:18;;;;;;;8.07;1.35;;;4.80;99.90;;;;;;4999069;28;20053;-86
2022/01/05 08:25:43;;;;;;;13.80;1.08;;;4.80;99.90;;;;;;4999145;28;20018;-87
2022/01/05 08:28:11;;;;;;;13.77;1.02;;;4.80;99.90;;;;;;4998069;28;20552;-87
2022/01/05 08:30:37;;;;;;;13.25;1.05;;;4.80;99.90;;;;;;4999540;28;20018;-87
2022/01/05 08:33:03;;;;;;;13.07;1.65;;;4.90;99.90;;;;;;4999001;28;20033;-87
2022/01/05 08:35:29;;;;;;;13.25;1.15;;;4.90;99.90;;;;;;4998468;28;20026;-87
2022/01/05 08:37:55;;;;;;;12.38;1.35;;;4.90;99.90;;;;;;4998128;28;20506;-87
2022/01/05 08:40:23;;;;;;;14.13;0.93;;;4.90;99.90;;;;;;4998671;28;20036;-87
2022/01/05 08:42:50;;;;;;;10.73;1.27;;;5.00;99.90;;;;;;4995669;28;20092;-86
2022/01/05 08:45:16;;;;;;;18.17;1.25;;;5.00;99.90;;;;;;5013136;28;20152;-86
2022/01/05 08:47:47;;;;;;;16.92;2.15;;;5.00;99.90;;;;;;4997205;28;20553;-87
2022/01/05 08:50:14;;;;;;;11.65;1.75;;;5.00;99.90;;;;;;4998978;28;20403;-87
2022/01/05 08:52:40;;;;;;;16.08;1.67;;;4.90;99.90;;;;;;5016391;28;20422;-87
2022/01/05 08:55:06;;;;;;;15.68;1.33;;;4.80;99.90;;;;;;4998583;28;20029;-88
2022/01/05 08:57:32;;;;;;;14.77;1.10;;;4.70;99.90;;;;;;4997006;28;20046;-88
2022/01/05 08:59:58;;;;;;;20.88;2.03;;;4.60;99.90;;;;;;4989042;28;20029;-86
2022/01/05 09:02:23;;;;;;;8.60;1.13;;;4.50;99.90;;;;;;4996475;28;20057;-89
2022/01/05 09:04:51;;;;;;;19.55;2.47;;;4.40;99.90;;;;;;4995430;28;20026;-87
2022/01/05 09:07:20;;;;;;;14.20;1.25;;;4.40;99.90;;;;;;4998263;28;20474;-89
2022/01/05 09:09:45;;;;;;;17.45;2.00;;;4.40;99.90;;;;;;4996920;28;20033;-88
2022/01/05 09:12:11;;;;;;;15.82;1.70;;;4.40;99.90;;;;;;4995756;28;20124;-88
2022/01/05 09:14:38;;;;;;;19.52;2.03;;;4.40;99.90;;;;;;4991553;28;20067;-88
2022/01/05 09:17:04;;;;;;;14.40;1.92;;;4.40;99.90;;;;;;4994557;28;20046;-89
2022/01/05 09:19:30;;;;;;;17.02;2.03;;;4.40;99.90;;;;;;4993301;28;20030;-89
2022/01/05 09:21:56;;;;;;;18.02;3.00;;;4.40;99.90;;;;;;4994714;28;20120;-91
2022/01/05 09:24:22;;;;;;;21.00;1.88;;;4.40;99.90;;;;;;4993599;28;20026;-89
2022/01/05 09:26:47;;;;;;;17.77;1.50;;;4.40;99.90;;;;;;4992706;28;20026;-90
2022/01/05 09:29:13;;;;;;;18.45;1.42;;;4.40;99.90;;;;;;4992097;28;20073;-90
2022/01/05 09:31:38;;;;;;;12.07;1.27;;;4.40;99.90;;;;;;4994813;28;20030;-89
2022/01/05 09:34:05;;;;;;;12.55;1.20;;;4.40;99.90;;;;;;4992099;28;20121;-91
2022/01/05 09:36:35;;;;;;;32.90;2.38;;;4.40;99.90;;;;;;4994051;28;20399;-91
2022/01/05 09:41:57;;;;;;;11.43;1.38;;;4.40;99.90;;;;;;4990669;28;20078;-91
2022/01/05 09:44:32;;;;;;;19.45;1.88;;;4.40;99.90;;;;;;4989187;28;20050;-92
2022/01/05 09:47:31;;;;;;;13.00;1.73;;;4.30;99.90;;;;;;4995688;28;20510;-90
2022/01/05 09:50:04;;;;;;;24.02;1.77;;;4.30;99.90;;;;;;4996454;28;20487;-89
2022/01/05 09:52:34;;;;;;;10.80;1.23;;;4.40;99.90;;;;;;4992280;28;20030;-89
2022/01/05 09:55:01;;;;;;;16.77;1.35;;;4.40;99.90;;;;;;4983911;28;20403;-89
2022/01/05 09:57:28;;;;;;;18.38;1.60;;;4.40;99.90;;;;;;4993958;28;20034;-89
2022/01/05 09:59:56;;;;;;;18.23;2.08;;;4.50;99.90;;;;;;4993786;28;20022;-88
2022/01/05 10:02:22;;;;;;;17.25;1.75;;;4.50;99.90;;;;;;4994385;28;20134;-88
2022/01/05 10:04:47;;;;;;;10.88;0.93;;;4.50;99.90;;;;;;4988264;28;20106;-88
2022/01/05 10:07:14;;;;;;;23.38;1.67;;;4.50;99.90;;;;;;4995018;28;20046;-89
2022/01/05 10:09:44;;;;;;;15.57;1.65;;;4.50;99.90;;;;;;4991029;28;20435;-87
2022/01/05 10:12:11;;;;;;;22.27;2.05;;;4.50;99.90;;;;;;4994814;28;20117;-89
2022/01/05 10:14:41;;;;;;;21.75;2.25;;;4.50;99.90;;;;;;4991562;28;20030;-88
2022/01/05 10:17:12;;;;;;;12.25;1.48;;;4.60;99.90;;;;;;4996492;28;20053;-88
2022/01/05 10:19:38;;;;;;;20.35;2.10;;;4.70;99.90;;;;;;5011844;28;20120;-90
2022/01/05 10:22:25;;;;;;;14.07;0.90;;;4.70;99.90;;;;;;4996915;28;20030;-91
2022/01/05 10:24:50;;;;;;;16.00;1.95;;;4.70;99.90;;;;;;5014920;28;20081;-89
2022/01/05 10:27:22;;;;;;;16.10;2.22;;;4.70;99.90;;;;;;4980757;28;20069;-90
2022/01/05 10:29:59;;;;;;;10.30;1.17;;;4.80;99.90;;;;;;4997021;28;20034;-90
2022/01/05 10:32:29;;;;;;;19.83;3.40;;;4.80;99.90;;;;;;5003809;28;20061;-89
2022/01/05 10:35:10;;;;;;;23.13;1.92;;;4.80;99.90;;;;;;4993086;28;20025;-88
2022/01/05 10:37:38;;;;;;;14.40;1.58;;;4.80;99.90;;;;;;4979016;28;20038;-88
2022/01/05 10:40:06;;;;;;;21.48;3.08;;;4.80;99.90;;;;;;4990577;28;20026;-90
2022/01/05 10:42:33;;;;;;;17.08;1.58;;;4.80;99.90;;;;;;4992509;28;20045;-91
2022/01/05 10:44:58;;;;;;;15.63;1.73;;;4.90;99.90;;;;;;4992920;28;20022;-92
2022/01/05 10:47:25;;;;;;;12.55;0.85;;;4.90;99.90;;;;;;4999994;28;20493;-90
2022/01/05 10:49:51;;;;;;;12.60;1.42;;;4.90;99.90;;;;;;5002994;28;20026;-92
2022/01/05 10:52:26;;;;;;;20.73;1.73;;;4.90;99.90;;;;;;5001952;28;20021;-90
2022/01/05 10:54:53;;;;;;;27.25;2.42;;;4.90;99.90;;;;;;5002517;28;20006;-91
2022/01/05 10:57:20;;;;;;;17.05;1.77;;;5.00;99.90;;;;;;5003063;28;20034;-92
2022/01/05 10:59:48;;;;;;;21.23;2.42;;;5.10;99.90;;;;;;4992827;28;20026;-91
2022/01/05 11:02:32;;;;;;;21.00;2.35;;;5.10;99.90;;;;;;5001327;28;20026;-92
2022/01/05 11:05:07;;;;;;;16.58;1.63;;;5.20;99.90;;;;;;4998983;28;20065;-90
2022/01/05 11:07:37;;;;;;;17.13;1.58;;;5.30;99.90;;;;;;4991868;28;20030;-92
2022/01/05 11:10:09;;;;;;;18.13;1.73;;;5.30;99.90;;;;;;4987751;28;20022;-92
2022/01/05 11:12:53;;;;;;;14.43;1.65;;;5.40;99.90;;;;;;4984316;28;20076;-92
2022/01/05 11:15:29;;;;;;;17.70;1.40;;;5.60;99.90;;;;;;5002401;28;20041;-92
2022/01/05 11:18:31;;;;;;;13.10;0.90;;;5.70;99.90;;;;;;4995964;28;20064;-91
2022/01/05 11:21:02;;;;;;;19.08;1.67;;;5.70;99.90;;;;;;4981421;28;20430;-92
2022/01/05 11:23:30;;;;;;;16.55;2.42;;;5.70;99.90;;;;;;5002099;28;20029;-90
2022/01/05 11:25:57;;;;;;;18.85;1.88;;;5.60;99.90;;;;;;5001519;28;20120;-92
2022/01/05 11:28:24;;;;;;;18.98;1.48;;;5.50;99.90;;;;;;4998068;28;20058;-91
2022/01/05 11:30:52;;;;;;;16.52;1.55;;;5.40;99.90;;;;;;4998320;28;20084;-90
2022/01/05 11:33:19;;;;;;;15.43;1.13;;;5.40;99.90;;;;;;5001070;28;20034;-91
2022/01/05 11:35:45;;;;;;;14.52;1.40;;;5.30;99.90;;;;;;5000764;28;20053;-90
2022/01/05 11:38:11;;;;;;;23.10;2.80;;;5.40;99.90;;;;;;4999260;28;20100;-92
2022/01/05 11:40:40;;;;;;;24.92;2.38;;;5.40;99.90;;;;;;5001527;28;20104;-92
2022/01/05 11:43:09;;;;;;;19.17;1.75;;;5.50;99.90;;;;;;5000752;28;20060;-91
2022/01/05 11:45:44;;;;;;;14.45;1.88;;;5.50;99.90;;;;;;5017908;28;20104;-92
2022/01/05 11:48:28;;;;;;;17.20;1.58;;;5.60;99.90;;;;;;4996650;28;20077;-93
2022/01/05 11:50:57;;;;;;;16.75;1.55;;;5.50;99.90;;;;;;5013766;28;20041;-92
2022/01/05 11:53:43;;;;;;;14.32;1.42;;;5.40;99.90;;;;;;5018460;28;20071;-92
2022/01/05 11:56:18;;;;;;;20.13;1.88;;;5.40;99.90;;;;;;5006584;28;20060;-92
2022/01/05 11:58:58;;;;;;;16.15;1.30;;;5.30;99.90;;;;;;5025723;28;20097;-90
2022/01/05 12:01:27;;;;;;;13.05;1.90;;;5.30;99.90;;;;;;4981700;28;20026;-92
2022/01/05 12:03:59;;;;;;;18.70;2.05;;;5.30;99.90;;;;;;4989459;28;20022;-91
2022/01/05 12:06:33;;;;;;;17.50;2.70;;;5.30;99.90;;;;;;5001051;28;20049;-90
2022/01/05 12:09:00;;;;;;;24.20;2.25;;;5.30;99.90;;;;;;5018367;28;20022;-90
2022/01/05 12:11:30;;;;;;;27.27;2.33;;;5.30;99.90;;;;;;5000693;28;20092;-91
2022/01/05 12:14:00;;;;;;;14.48;1.20;;;5.30;99.90;;;;;;5018137;28;20037;-90
2022/01/05 12:16:26;;;;;;;22.08;1.80;;;5.40;99.90;;;;;;4989061;28;20057;-90
2022/01/05 12:19:11;;;;;;;18.00;1.13;;;5.40;99.90;;;;;;4999799;28;20034;-90
2022/01/05 12:21:49;;;;;;;18.15;1.92;;;5.40;99.90;;;;;;5000197;28;20093;-90
2022/01/05 12:24:15;;;;;;;21.33;1.77;;;5.40;99.90;;;;;;5000295;28;20021;-91
2022/01/05 12:26:41;;;;;;;21.02;1.40;;;5.40;99.90;;;;;;4995466;28;20097;-92
2022/01/05 12:29:07;;;;;;;32.42;2.15;;;5.40;99.90;;;;;;5000210;28;20065;-91
2022/01/05 12:32:01;;;;;;;17.40;2.25;;;5.40;99.90;;;;;;4997150;28;20049;-90
2022/01/05 12:34:56;;;;;;;23.38;1.83;;;5.40;99.90;;;;;;4981286;28;20040;-90
2022/01/05 12:37:48;;;;;;;19.92;1.48;;;5.40;99.90;;;;;;4995638;28;20038;-92
2022/01/05 12:40:33;;;;;;;19.05;1.63;;;5.50;99.90;;;;;;4987185;28;20026;-93
2022/01/05 12:43:08;;;;;;;21.67;1.58;;;5.50;99.90;;;;;;4990872;28;20124;-90
2022/01/05 12:45:57;;;;;;;24.80;2.05;;;5.50;99.90;;;;;;4991153;28;20041;-91
2022/01/05 12:48:39;;;;;;;17.17;1.23;;;5.50;99.90;;;;;;4996315;28;20390;-91
2022/01/05 12:51:14;;;;;;;15.80;1.27;;;5.40;99.90;;;;;;5004472;28;20387;-91
2022/01/05 12:53:55;;;;;;;14.48;2.08;;;5.50;99.90;;;;;;5005615;28;20102;-91
2022/01/05 12:56:23;;;;;;;14.30;1.38;;;5.40;99.90;;;;;;4998725;28;20107;-89
2022/01/05 12:58:51;;;;;;;20.10;2.47;;;5.40;99.90;;;;;;4999195;28;20034;-90